RJNT

Toyama Airport

Airport
ICAO code
RJNT
IATA Code
TOY
Summary
ICAO Region
APAC
ICAO Territory
Location

Toyama, Toyama Prefecture

Serving
Toyama
Elevation
127 ft
Coordinates
36° 38' 38" N , 137° 11' 22" E
KCC
Metar
Observation
RJNT 090500Z 01008KT 9999 FEW030 SCT/// 06/M08 Q1030
Station
Toyama Airport
Date/Time
2023-02-09 05:00:00
Wind direction
10°
Wind speed
08 kts
Lowest cloud amount
few clouds
Temperature
6°C
Dew point
-8°C
Humidity
35%
QNH
1030 hPa
Weather condition
n/a

Toyama Airport is an airport located 3 nm south southwest of Toyama City, Toyama Prefecture, Japan.

Climatology

Humid Sub-tropical climate (Köppen climate classification Cfa)

Runways

Designator Length Width Surface Rops
2/20 2000 46 ASP Yes/Yes

Airport map

Aerial View

SKYbrary Partners:

Safety knowledge contributed by: